sensor_id;sensor_type;location;lat;lon;timestamp;P1;durP1;ratioP1;P2;durP2;ratioP2
42760;SDS011;31672;47.638;19.026;2022-08-20T00:02:50;8.27;;;4.97;;
42760;SDS011;31672;47.638;19.026;2022-08-20T00:08:04;11.82;;;5.35;;
42760;SDS011;31672;47.638;19.026;2022-08-20T00:13:10;9.35;;;5.20;;
42760;SDS011;31672;47.638;19.026;2022-08-20T00:18:19;9.40;;;4.85;;
42760;SDS011;31672;47.638;19.026;2022-08-20T00:23:23;8.68;;;5.55;;
42760;SDS011;31672;47.638;19.026;2022-08-20T00:28:27;8.18;;;5.93;;
42760;SDS011;31672;47.638;19.026;2022-08-20T00:33:29;11.32;;;5.70;;
42760;SDS011;31672;47.638;19.026;2022-08-20T00:38:34;6.13;;;4.57;;
42760;SDS011;31672;47.638;19.026;2022-08-20T00:43:40;11.35;;;4.55;;
42760;SDS011;31672;47.638;19.026;2022-08-20T00:48:48;11.38;;;5.07;;
42760;SDS011;31672;47.638;19.026;2022-08-20T00:53:54;8.38;;;4.78;;
42760;SDS011;31672;47.638;19.026;2022-08-20T00:59:25;8.15;;;5.00;;
42760;SDS011;31672;47.638;19.026;2022-08-20T01:04:32;9.93;;;4.57;;
42760;SDS011;31672;47.638;19.026;2022-08-20T01:09:37;11.52;;;5.63;;
42760;SDS011;31672;47.638;19.026;2022-08-20T01:15:00;9.55;;;5.35;;
42760;SDS011;31672;47.638;19.026;2022-08-20T01:20:14;8.40;;;5.07;;
42760;SDS011;31672;47.638;19.026;2022-08-20T01:31:09;8.60;;;4.45;;
42760;SDS011;31672;47.638;19.026;2022-08-20T01:36:22;10.00;;;4.50;;
42760;SDS011;31672;47.638;19.026;2022-08-20T01:47:29;12.93;;;6.20;;
42760;SDS011;31672;47.638;19.026;2022-08-20T01:58:14;12.63;;;6.22;;
42760;SDS011;31672;47.638;19.026;2022-08-20T02:03:17;12.15;;;7.45;;
42760;SDS011;31672;47.638;19.026;2022-08-20T02:08:20;10.80;;;6.50;;
42760;SDS011;31672;47.638;19.026;2022-08-20T02:13:24;15.57;;;6.85;;
42760;SDS011;31672;47.638;19.026;2022-08-20T02:18:27;7.18;;;5.25;;
42760;SDS011;31672;47.638;19.026;2022-08-20T02:23:30;9.65;;;5.70;;
42760;SDS011;31672;47.638;19.026;2022-08-20T02:28:32;15.98;;;5.78;;
42760;SDS011;31672;47.638;19.026;2022-08-20T02:33:35;10.63;;;5.47;;
42760;SDS011;31672;47.638;19.026;2022-08-20T02:38:40;10.40;;;6.35;;
42760;SDS011;31672;47.638;19.026;2022-08-20T02:43:43;11.65;;;7.18;;
42760;SDS011;31672;47.638;19.026;2022-08-20T02:48:46;14.93;;;9.02;;
42760;SDS011;31672;47.638;19.026;2022-08-20T02:53:49;14.68;;;8.10;;
42760;SDS011;31672;47.638;19.026;2022-08-20T02:58:52;9.77;;;6.57;;
42760;SDS011;31672;47.638;19.026;2022-08-20T03:03:55;12.77;;;6.80;;
42760;SDS011;31672;47.638;19.026;2022-08-20T03:09:01;10.00;;;6.45;;
42760;SDS011;31672;47.638;19.026;2022-08-20T03:14:07;9.20;;;5.65;;
42760;SDS011;31672;47.638;19.026;2022-08-20T03:19:10;13.52;;;7.63;;
42760;SDS011;31672;47.638;19.026;2022-08-20T03:24:14;11.50;;;6.78;;
42760;SDS011;31672;47.638;19.026;2022-08-20T03:29:17;9.90;;;7.05;;
42760;SDS011;31672;47.638;19.026;2022-08-20T03:34:20;13.23;;;9.05;;
42760;SDS011;31672;47.638;19.026;2022-08-20T03:39:22;12.70;;;7.95;;
42760;SDS011;31672;47.638;19.026;2022-08-20T03:44:25;13.32;;;7.72;;
42760;SDS011;31672;47.638;19.026;2022-08-20T03:49:28;10.13;;;7.53;;
42760;SDS011;31672;47.638;19.026;2022-08-20T03:54:33;11.25;;;7.43;;
42760;SDS011;31672;47.638;19.026;2022-08-20T03:59:36;12.73;;;8.73;;
42760;SDS011;31672;47.638;19.026;2022-08-20T04:04:39;14.23;;;8.25;;
42760;SDS011;31672;47.638;19.026;2022-08-20T04:09:42;10.18;;;7.63;;
42760;SDS011;31672;47.638;19.026;2022-08-20T04:14:45;12.15;;;7.82;;
42760;SDS011;31672;47.638;19.026;2022-08-20T04:19:48;16.05;;;8.13;;
42760;SDS011;31672;47.638;19.026;2022-08-20T04:24:51;15.50;;;8.15;;
42760;SDS011;31672;47.638;19.026;2022-08-20T04:29:54;15.43;;;8.07;;
42760;SDS011;31672;47.638;19.026;2022-08-20T04:34:57;12.80;;;8.63;;
42760;SDS011;31672;47.638;19.026;2022-08-20T04:40:05;12.55;;;7.20;;
42760;SDS011;31672;47.638;19.026;2022-08-20T04:45:42;11.40;;;8.65;;
42760;SDS011;31672;47.638;19.026;2022-08-20T04:50:46;10.70;;;7.78;;
42760;SDS011;31672;47.638;19.026;2022-08-20T04:55:49;12.73;;;8.00;;
42760;SDS011;31672;47.638;19.026;2022-08-20T05:00:54;11.65;;;7.65;;
42760;SDS011;31672;47.638;19.026;2022-08-20T05:06:03;11.15;;;7.70;;
42760;SDS011;31672;47.638;19.026;2022-08-20T05:11:07;12.32;;;7.50;;
42760;SDS011;31672;47.638;19.026;2022-08-20T05:16:30;9.18;;;7.20;;
42760;SDS011;31672;47.638;19.026;2022-08-20T05:21:39;12.60;;;6.80;;
42760;SDS011;31672;47.638;19.026;2022-08-20T05:26:42;15.02;;;7.38;;
42760;SDS011;31672;47.638;19.026;2022-08-20T05:31:45;10.15;;;5.82;;
42760;SDS011;31672;47.638;19.026;2022-08-20T05:36:48;9.50;;;5.85;;
42760;SDS011;31672;47.638;19.026;2022-08-20T05:41:56;9.48;;;5.35;;
42760;SDS011;31672;47.638;19.026;2022-08-20T05:47:00;7.20;;;5.03;;
42760;SDS011;31672;47.638;19.026;2022-08-20T05:52:05;10.65;;;5.30;;
42760;SDS011;31672;47.638;19.026;2022-08-20T05:57:08;11.90;;;5.65;;
42760;SDS011;31672;47.638;19.026;2022-08-20T06:02:12;12.35;;;6.25;;
42760;SDS011;31672;47.638;19.026;2022-08-20T06:07:34;12.10;;;4.95;;
42760;SDS011;31672;47.638;19.026;2022-08-20T06:12:39;9.63;;;5.18;;
42760;SDS011;31672;47.638;19.026;2022-08-20T06:17:45;8.63;;;4.55;;
42760;SDS011;31672;47.638;19.026;2022-08-20T06:22:59;6.60;;;4.60;;
42760;SDS011;31672;47.638;19.026;2022-08-20T06:28:03;7.53;;;4.43;;
42760;SDS011;31672;47.638;19.026;2022-08-20T06:33:07;9.70;;;4.43;;
42760;SDS011;31672;47.638;19.026;2022-08-20T06:38:10;9.50;;;4.68;;
42760;SDS011;31672;47.638;19.026;2022-08-20T06:43:13;9.40;;;4.38;;
42760;SDS011;31672;47.638;19.026;2022-08-20T06:48:16;8.27;;;4.90;;
42760;SDS011;31672;47.638;19.026;2022-08-20T06:53:19;8.88;;;4.57;;
42760;SDS011;31672;47.638;19.026;2022-08-20T06:58:23;8.02;;;5.38;;
42760;SDS011;31672;47.638;19.026;2022-08-20T07:03:40;7.63;;;4.90;;
42760;SDS011;31672;47.638;19.026;2022-08-20T07:08:57;11.18;;;6.47;;
42760;SDS011;31672;47.638;19.026;2022-08-20T07:14:00;11.68;;;4.80;;
42760;SDS011;31672;47.638;19.026;2022-08-20T07:19:06;12.05;;;5.53;;
42760;SDS011;31672;47.638;19.026;2022-08-20T07:24:09;11.73;;;5.55;;
42760;SDS011;31672;47.638;19.026;2022-08-20T07:29:13;10.85;;;5.53;;
42760;SDS011;31672;47.638;19.026;2022-08-20T07:34:16;11.02;;;5.55;;
42760;SDS011;31672;47.638;19.026;2022-08-20T07:39:20;13.07;;;6.97;;
42760;SDS011;31672;47.638;19.026;2022-08-20T07:44:23;10.85;;;5.45;;
42760;SDS011;31672;47.638;19.026;2022-08-20T07:49:35;13.77;;;5.90;;
42760;SDS011;31672;47.638;19.026;2022-08-20T07:54:40;12.50;;;5.30;;
42760;SDS011;31672;47.638;19.026;2022-08-20T07:59:45;7.72;;;4.05;;
42760;SDS011;31672;47.638;19.026;2022-08-20T08:04:49;12.60;;;4.68;;
42760;SDS011;31672;47.638;19.026;2022-08-20T08:09:53;12.38;;;4.82;;
42760;SDS011;31672;47.638;19.026;2022-08-20T08:14:57;9.65;;;5.43;;
42760;SDS011;31672;47.638;19.026;2022-08-20T08:20:00;12.30;;;6.85;;
42760;SDS011;31672;47.638;19.026;2022-08-20T08:25:09;9.75;;;6.38;;
42760;SDS011;31672;47.638;19.026;2022-08-20T08:30:14;13.45;;;6.68;;
42760;SDS011;31672;47.638;19.026;2022-08-20T08:35:18;10.20;;;5.95;;
42760;SDS011;31672;47.638;19.026;2022-08-20T08:40:21;10.15;;;5.53;;
42760;SDS011;31672;47.638;19.026;2022-08-20T08:45:26;11.98;;;6.00;;
42760;SDS011;31672;47.638;19.026;2022-08-20T08:50:39;9.48;;;5.88;;
42760;SDS011;31672;47.638;19.026;2022-08-20T08:55:55;13.77;;;7.38;;
42760;SDS011;31672;47.638;19.026;2022-08-20T09:01:00;11.82;;;7.10;;
42760;SDS011;31672;47.638;19.026;2022-08-20T09:06:44;10.27;;;6.97;;
42760;SDS011;31672;47.638;19.026;2022-08-20T09:11:54;11.15;;;7.03;;
42760;SDS011;31672;47.638;19.026;2022-08-20T09:17:04;12.50;;;7.22;;
42760;SDS011;31672;47.638;19.026;2022-08-20T09:22:12;13.90;;;9.38;;
42760;SDS011;31672;47.638;19.026;2022-08-20T09:27:21;12.80;;;7.93;;
42760;SDS011;31672;47.638;19.026;2022-08-20T09:32:24;10.60;;;7.22;;
42760;SDS011;31672;47.638;19.026;2022-08-20T09:37:29;10.30;;;6.93;;
42760;SDS011;31672;47.638;19.026;2022-08-20T09:42:38;13.20;;;7.85;;
42760;SDS011;31672;47.638;19.026;2022-08-20T09:47:42;13.57;;;7.60;;
42760;SDS011;31672;47.638;19.026;2022-08-20T09:52:58;17.08;;;9.20;;
42760;SDS011;31672;47.638;19.026;2022-08-20T09:58:11;13.20;;;9.07;;
42760;SDS011;31672;47.638;19.026;2022-08-20T10:03:23;14.13;;;9.43;;
42760;SDS011;31672;47.638;19.026;2022-08-20T10:08:26;14.82;;;9.25;;
42760;SDS011;31672;47.638;19.026;2022-08-20T10:13:30;14.20;;;9.90;;
42760;SDS011;31672;47.638;19.026;2022-08-20T10:18:33;14.95;;;10.60;;
42760;SDS011;31672;47.638;19.026;2022-08-20T10:23:37;15.50;;;10.02;;
42760;SDS011;31672;47.638;19.026;2022-08-20T10:28:42;17.02;;;10.05;;
42760;SDS011;31672;47.638;19.026;2022-08-20T10:33:45;13.35;;;8.27;;
42760;SDS011;31672;47.638;19.026;2022-08-20T10:38:47;10.65;;;6.22;;
42760;SDS011;31672;47.638;19.026;2022-08-20T10:43:50;10.50;;;5.40;;
42760;SDS011;31672;47.638;19.026;2022-08-20T10:48:53;10.23;;;5.88;;
42760;SDS011;31672;47.638;19.026;2022-08-20T10:53:56;8.30;;;5.28;;
42760;SDS011;31672;47.638;19.026;2022-08-20T10:58:59;11.32;;;6.18;;
42760;SDS011;31672;47.638;19.026;2022-08-20T11:04:02;11.82;;;6.85;;
42760;SDS011;31672;47.638;19.026;2022-08-20T11:09:05;13.57;;;9.95;;
42760;SDS011;31672;47.638;19.026;2022-08-20T11:14:10;13.85;;;8.43;;
42760;SDS011;31672;47.638;19.026;2022-08-20T11:19:14;12.32;;;8.30;;
42760;SDS011;31672;47.638;19.026;2022-08-20T11:24:17;11.00;;;7.72;;
42760;SDS011;31672;47.638;19.026;2022-08-20T11:29:20;10.85;;;7.70;;
42760;SDS011;31672;47.638;19.026;2022-08-20T11:34:23;10.57;;;7.15;;
42760;SDS011;31672;47.638;19.026;2022-08-20T11:39:26;11.68;;;8.00;;
42760;SDS011;31672;47.638;19.026;2022-08-20T11:44:30;8.68;;;5.63;;
42760;SDS011;31672;47.638;19.026;2022-08-20T11:49:34;10.50;;;5.90;;
42760;SDS011;31672;47.638;19.026;2022-08-20T11:54:38;10.25;;;5.30;;
42760;SDS011;31672;47.638;19.026;2022-08-20T11:59:46;10.10;;;6.72;;
42760;SDS011;31672;47.638;19.026;2022-08-20T12:04:55;8.02;;;5.60;;
42760;SDS011;31672;47.638;19.026;2022-08-20T12:09:58;11.45;;;7.18;;
42760;SDS011;31672;47.638;19.026;2022-08-20T12:15:01;8.55;;;4.30;;
42760;SDS011;31672;47.638;19.026;2022-08-20T12:20:07;8.40;;;3.80;;
42760;SDS011;31672;47.638;19.026;2022-08-20T12:25:13;6.47;;;3.53;;
42760;SDS011;31672;47.638;19.026;2022-08-20T12:30:18;10.43;;;3.80;;
42760;SDS011;31672;47.638;19.026;2022-08-20T12:35:23;5.95;;;2.83;;
42760;SDS011;31672;47.638;19.026;2022-08-20T12:40:27;5.30;;;3.35;;
42760;SDS011;31672;47.638;19.026;2022-08-20T12:45:34;7.30;;;3.08;;
42760;SDS011;31672;47.638;19.026;2022-08-20T12:50:41;4.95;;;3.15;;
42760;SDS011;31672;47.638;19.026;2022-08-20T12:55:46;6.75;;;3.20;;
42760;SDS011;31672;47.638;19.026;2022-08-20T13:00:49;6.72;;;3.00;;
42760;SDS011;31672;47.638;19.026;2022-08-20T13:05:52;6.22;;;2.97;;
42760;SDS011;31672;47.638;19.026;2022-08-20T13:10:55;9.90;;;3.58;;
42760;SDS011;31672;47.638;19.026;2022-08-20T13:15:58;6.35;;;3.25;;
42760;SDS011;31672;47.638;19.026;2022-08-20T13:21:01;6.72;;;3.80;;
42760;SDS011;31672;47.638;19.026;2022-08-20T13:26:04;8.43;;;3.50;;
42760;SDS011;31672;47.638;19.026;2022-08-20T13:31:08;6.78;;;3.35;;
42760;SDS011;31672;47.638;19.026;2022-08-20T13:36:11;5.80;;;3.65;;
42760;SDS011;31672;47.638;19.026;2022-08-20T13:41:14;7.13;;;3.45;;
42760;SDS011;31672;47.638;19.026;2022-08-20T13:46:17;6.57;;;3.50;;
42760;SDS011;31672;47.638;19.026;2022-08-20T13:51:20;6.38;;;3.40;;
42760;SDS011;31672;47.638;19.026;2022-08-20T13:56:28;6.70;;;3.08;;
42760;SDS011;31672;47.638;19.026;2022-08-20T14:01:31;9.48;;;3.47;;
42760;SDS011;31672;47.638;19.026;2022-08-20T14:06:35;5.95;;;3.53;;
42760;SDS011;31672;47.638;19.026;2022-08-20T14:11:38;6.47;;;3.53;;
42760;SDS011;31672;47.638;19.026;2022-08-20T14:16:41;10.13;;;3.75;;
42760;SDS011;31672;47.638;19.026;2022-08-20T14:21:45;6.72;;;3.08;;
42760;SDS011;31672;47.638;19.026;2022-08-20T14:26:47;10.98;;;3.47;;
42760;SDS011;31672;47.638;19.026;2022-08-20T14:31:50;9.13;;;3.63;;
42760;SDS011;31672;47.638;19.026;2022-08-20T14:36:53;8.18;;;3.28;;
42760;SDS011;31672;47.638;19.026;2022-08-20T14:41:56;9.05;;;3.90;;
42760;SDS011;31672;47.638;19.026;2022-08-20T14:52:36;6.50;;;3.67;;
42760;SDS011;31672;47.638;19.026;2022-08-20T14:57:39;10.25;;;4.20;;
42760;SDS011;31672;47.638;19.026;2022-08-20T15:02:43;6.93;;;3.95;;
42760;SDS011;31672;47.638;19.026;2022-08-20T15:07:48;5.95;;;3.63;;
42760;SDS011;31672;47.638;19.026;2022-08-20T15:12:55;9.32;;;3.70;;
42760;SDS011;31672;47.638;19.026;2022-08-20T15:17:58;6.38;;;3.50;;
42760;SDS011;31672;47.638;19.026;2022-08-20T15:23:02;7.72;;;4.15;;
42760;SDS011;31672;47.638;19.026;2022-08-20T15:28:07;6.55;;;3.88;;
42760;SDS011;31672;47.638;19.026;2022-08-20T15:33:11;8.00;;;4.28;;
42760;SDS011;31672;47.638;19.026;2022-08-20T15:38:14;6.03;;;4.22;;
42760;SDS011;31672;47.638;19.026;2022-08-20T15:43:17;5.63;;;3.80;;
42760;SDS011;31672;47.638;19.026;2022-08-20T15:48:21;6.68;;;4.03;;
42760;SDS011;31672;47.638;19.026;2022-08-20T16:16:47;8.50;;;4.05;;
42760;SDS011;31672;47.638;19.026;2022-08-20T16:22:02;7.15;;;3.95;;
42760;SDS011;31672;47.638;19.026;2022-08-20T16:38:44;6.72;;;3.33;;
42760;SDS011;31672;47.638;19.026;2022-08-20T16:43:51;6.18;;;3.45;;
42760;SDS011;31672;47.638;19.026;2022-08-20T16:49:01;9.13;;;3.60;;
42760;SDS011;31672;47.638;19.026;2022-08-20T16:54:15;12.85;;;4.30;;
42760;SDS011;31672;47.638;19.026;2022-08-20T16:59:30;9.25;;;5.38;;
42760;SDS011;31672;47.638;19.026;2022-08-20T17:04:43;7.85;;;4.22;;
42760;SDS011;31672;47.638;19.026;2022-08-20T17:10:08;10.10;;;4.05;;
42760;SDS011;31672;47.638;19.026;2022-08-20T17:15:38;7.30;;;4.57;;
42760;SDS011;31672;47.638;19.026;2022-08-20T17:20:45;7.22;;;5.05;;
42760;SDS011;31672;47.638;19.026;2022-08-20T17:25:57;9.40;;;5.75;;
42760;SDS011;31672;47.638;19.026;2022-08-20T17:31:03;10.02;;;7.05;;
42760;SDS011;31672;47.638;19.026;2022-08-20T17:36:07;10.07;;;6.60;;
42760;SDS011;31672;47.638;19.026;2022-08-20T17:41:29;13.43;;;6.95;;
42760;SDS011;31672;47.638;19.026;2022-08-20T17:51:49;10.07;;;5.13;;
42760;SDS011;31672;47.638;19.026;2022-08-20T17:57:01;7.38;;;4.93;;
42760;SDS011;31672;47.638;19.026;2022-08-20T18:02:15;11.30;;;5.97;;
42760;SDS011;31672;47.638;19.026;2022-08-20T18:23:37;6.80;;;3.90;;
42760;SDS011;31672;47.638;19.026;2022-08-20T18:29:06;6.90;;;4.00;;
42760;SDS011;31672;47.638;19.026;2022-08-20T18:39:32;8.25;;;4.38;;
42760;SDS011;31672;47.638;19.026;2022-08-20T18:44:44;10.57;;;4.47;;
42760;SDS011;31672;47.638;19.026;2022-08-20T18:56:02;8.02;;;3.33;;
42760;SDS011;31672;47.638;19.026;2022-08-20T19:01:10;8.33;;;3.47;;
42760;SDS011;31672;47.638;19.026;2022-08-20T19:06:18;11.70;;;3.70;;
42760;SDS011;31672;47.638;19.026;2022-08-20T19:17:22;7.13;;;3.75;;
42760;SDS011;31672;47.638;19.026;2022-08-20T19:22:42;9.15;;;5.22;;
42760;SDS011;31672;47.638;19.026;2022-08-20T19:27:46;9.43;;;5.20;;
42760;SDS011;31672;47.638;19.026;2022-08-20T19:32:50;7.97;;;4.88;;
42760;SDS011;31672;47.638;19.026;2022-08-20T19:37:54;7.18;;;5.13;;
42760;SDS011;31672;47.638;19.026;2022-08-20T19:42:58;8.93;;;5.20;;
42760;SDS011;31672;47.638;19.026;2022-08-20T19:48:11;11.07;;;6.18;;
42760;SDS011;31672;47.638;19.026;2022-08-20T19:53:28;10.50;;;6.00;;
42760;SDS011;31672;47.638;19.026;2022-08-20T19:58:34;13.50;;;6.13;;
42760;SDS011;31672;47.638;19.026;2022-08-20T20:03:38;10.27;;;6.13;;
42760;SDS011;31672;47.638;19.026;2022-08-20T20:09:00;10.18;;;6.30;;
42760;SDS011;31672;47.638;19.026;2022-08-20T20:14:15;9.18;;;6.43;;
42760;SDS011;31672;47.638;19.026;2022-08-20T20:19:20;8.48;;;6.57;;
42760;SDS011;31672;47.638;19.026;2022-08-20T20:24:29;9.13;;;7.00;;
42760;SDS011;31672;47.638;19.026;2022-08-20T20:29:42;11.45;;;7.30;;
42760;SDS011;31672;47.638;19.026;2022-08-20T20:34:49;10.65;;;6.43;;
42760;SDS011;31672;47.638;19.026;2022-08-20T20:40:05;9.30;;;6.07;;
42760;SDS011;31672;47.638;19.026;2022-08-20T20:45:20;8.35;;;7.05;;
42760;SDS011;31672;47.638;19.026;2022-08-20T20:50:31;11.43;;;6.18;;
42760;SDS011;31672;47.638;19.026;2022-08-20T20:55:36;8.65;;;5.80;;
42760;SDS011;31672;47.638;19.026;2022-08-20T21:00:40;7.20;;;4.95;;
42760;SDS011;31672;47.638;19.026;2022-08-20T21:05:43;11.60;;;6.10;;
42760;SDS011;31672;47.638;19.026;2022-08-20T21:10:46;9.77;;;5.90;;
42760;SDS011;31672;47.638;19.026;2022-08-20T21:15:50;8.05;;;5.78;;
42760;SDS011;31672;47.638;19.026;2022-08-20T21:20:52;10.40;;;6.30;;
42760;SDS011;31672;47.638;19.026;2022-08-20T21:25:55;10.20;;;6.53;;
42760;SDS011;31672;47.638;19.026;2022-08-20T21:31:00;8.57;;;6.45;;
42760;SDS011;31672;47.638;19.026;2022-08-20T21:36:03;7.65;;;6.80;;
42760;SDS011;31672;47.638;19.026;2022-08-20T21:41:06;11.65;;;5.70;;
42760;SDS011;31672;47.638;19.026;2022-08-20T21:46:10;8.30;;;5.95;;
42760;SDS011;31672;47.638;19.026;2022-08-20T21:51:13;6.22;;;5.60;;
42760;SDS011;31672;47.638;19.026;2022-08-20T21:56:16;5.55;;;5.05;;
42760;SDS011;31672;47.638;19.026;2022-08-20T22:01:20;7.40;;;5.38;;
42760;SDS011;31672;47.638;19.026;2022-08-20T22:06:23;6.35;;;4.68;;
42760;SDS011;31672;47.638;19.026;2022-08-20T22:11:26;9.85;;;5.35;;
42760;SDS011;31672;47.638;19.026;2022-08-20T22:16:30;6.53;;;4.75;;
42760;SDS011;31672;47.638;19.026;2022-08-20T22:21:33;4.75;;;4.28;;
42760;SDS011;31672;47.638;19.026;2022-08-20T22:26:37;5.13;;;3.90;;
42760;SDS011;31672;47.638;19.026;2022-08-20T22:31:42;4.40;;;4.00;;
42760;SDS011;31672;47.638;19.026;2022-08-20T22:36:46;4.90;;;3.92;;
42760;SDS011;31672;47.638;19.026;2022-08-20T22:41:51;3.90;;;3.50;;
42760;SDS011;31672;47.638;19.026;2022-08-20T22:46:55;5.07;;;3.83;;
42760;SDS011;31672;47.638;19.026;2022-08-20T22:52:06;4.28;;;3.85;;
42760;SDS011;31672;47.638;19.026;2022-08-20T22:57:12;9.30;;;4.15;;
42760;SDS011;31672;47.638;19.026;2022-08-20T23:02:16;5.00;;;4.07;;
42760;SDS011;31672;47.638;19.026;2022-08-20T23:07:20;5.95;;;4.35;;
42760;SDS011;31672;47.638;19.026;2022-08-20T23:12:23;4.70;;;3.97;;
42760;SDS011;31672;47.638;19.026;2022-08-20T23:17:26;5.10;;;4.60;;
42760;SDS011;31672;47.638;19.026;2022-08-20T23:22:29;5.20;;;4.70;;
42760;SDS011;31672;47.638;19.026;2022-08-20T23:27:34;4.45;;;4.05;;
42760;SDS011;31672;47.638;19.026;2022-08-20T23:32:43;7.68;;;4.40;;
42760;SDS011;31672;47.638;19.026;2022-08-20T23:37:48;4.07;;;3.67;;
42760;SDS011;31672;47.638;19.026;2022-08-20T23:42:55;6.15;;;4.10;;
42760;SDS011;31672;47.638;19.026;2022-08-20T23:47:58;5.25;;;3.92;;
42760;SDS011;31672;47.638;19.026;2022-08-20T23:53:02;4.88;;;4.35;;
42760;SDS011;31672;47.638;19.026;2022-08-20T23:58:06;6.75;;;4.28;;
